createdAt,value
2024-01-04T00:01:16.987Z,5.94
2024-01-04T00:03:44.451Z,5.93
2024-01-04T00:06:12.306Z,5.94
2024-01-04T00:08:39.583Z,5.95
2024-01-04T00:11:07.661Z,5.93
2024-01-04T00:13:35.116Z,5.96
2024-01-04T00:16:02.388Z,5.97
2024-01-04T00:18:29.707Z,5.98
2024-01-04T00:20:57.091Z,5.98
2024-01-04T00:23:24.229Z,5.99
2024-01-04T00:25:51.311Z,6.01
2024-01-04T00:28:18.665Z,6.03
2024-01-04T00:30:46.024Z,6.05
2024-01-04T00:33:13.210Z,6.07
2024-01-04T00:35:40.481Z,6.08
2024-01-04T00:38:08.189Z,6.10
2024-01-04T00:40:36.401Z,6.12
2024-01-04T00:43:05.337Z,6.14
2024-01-04T00:45:32.565Z,6.17
2024-01-04T00:47:59.702Z,6.20
2024-01-04T00:50:26.965Z,6.24
2024-01-04T00:53:03.127Z,6.27
2024-01-04T00:55:33.516Z,6.29
2024-01-04T00:58:00.669Z,6.32
2024-01-04T01:00:27.758Z,6.34
2024-01-04T01:02:55.047Z,6.38
2024-01-04T01:05:22.332Z,6.41
2024-01-04T01:07:49.416Z,6.43
2024-01-04T01:10:16.595Z,6.42
2024-01-04T01:12:43.736Z,6.43
2024-01-04T01:15:11.038Z,6.44
2024-01-04T01:17:38.324Z,6.44
2024-01-04T01:20:06.035Z,6.47
2024-01-04T01:22:33.139Z,6.51
2024-01-04T01:25:00.356Z,6.53
2024-01-04T01:27:27.435Z,6.54
2024-01-04T01:29:54.724Z,6.55
2024-01-04T01:32:21.844Z,6.57
2024-01-04T01:34:49.066Z,6.61
2024-01-04T01:37:16.772Z,6.64
2024-01-04T01:39:43.862Z,6.66
2024-01-04T01:42:11.121Z,6.67
2024-01-04T01:44:38.340Z,6.67
2024-01-04T01:47:05.872Z,6.70
2024-01-04T01:49:33.314Z,6.71
2024-01-04T01:52:00.590Z,6.70
2024-01-04T01:54:27.691Z,6.68
2024-01-04T01:56:57.712Z,6.69
2024-01-04T01:59:27.719Z,6.68
2024-01-04T02:01:55.396Z,6.68
2024-01-04T02:04:23.748Z,6.67
2024-01-04T02:06:50.966Z,6.68
2024-01-04T02:09:18.141Z,6.69
2024-01-04T02:11:46.703Z,6.70
2024-01-04T02:14:13.871Z,6.70
2024-01-04T02:16:41.207Z,6.71
2024-01-04T02:19:09.699Z,6.72
2024-01-04T02:21:38.637Z,6.72
2024-01-04T02:24:08.805Z,6.71
2024-01-04T02:26:36.023Z,6.72
2024-01-04T02:29:03.209Z,6.74
2024-01-04T02:31:30.364Z,6.74
2024-01-04T02:33:57.705Z,6.73
2024-01-04T02:36:26.190Z,6.71
2024-01-04T02:38:53.448Z,6.71
2024-01-04T02:41:20.595Z,6.69
2024-01-04T02:43:47.676Z,6.67
2024-01-04T02:46:14.826Z,6.65
2024-01-04T02:48:42.314Z,6.65
2024-01-04T02:51:09.778Z,6.66
2024-01-04T02:53:37.143Z,6.65
2024-01-04T02:56:05.374Z,6.63
2024-01-04T02:58:33.348Z,6.64
2024-01-04T03:01:00.577Z,6.67
2024-01-04T03:03:27.762Z,6.67
2024-01-04T03:05:55.619Z,6.66
2024-01-04T03:08:22.823Z,6.67
2024-01-04T03:10:50.010Z,6.67
2024-01-04T03:13:17.098Z,6.67
2024-01-04T03:15:44.207Z,6.63
2024-01-04T03:18:11.629Z,6.63
2024-01-04T03:20:39.050Z,6.62
2024-01-04T03:23:06.187Z,6.61
2024-01-04T03:25:33.733Z,6.63
2024-01-04T03:28:00.970Z,6.62
2024-01-04T03:30:28.451Z,6.58
2024-01-04T03:32:55.769Z,6.53
2024-01-04T03:35:22.990Z,6.47
2024-01-04T03:37:50.233Z,6.42
2024-01-04T03:40:17.396Z,6.36
2024-01-04T03:42:44.552Z,6.32
2024-01-04T03:45:12.310Z,6.29
2024-01-04T03:47:39.502Z,6.27
2024-01-04T03:50:07.551Z,6.22
2024-01-04T03:52:34.922Z,6.17
2024-01-04T03:55:02.045Z,6.15
2024-01-04T03:57:29.865Z,6.10
2024-01-04T03:59:57.029Z,6.08
2024-01-04T04:02:24.266Z,6.08
2024-01-04T04:04:51.342Z,6.06
2024-01-04T04:07:18.550Z,6.07
2024-01-04T04:09:45.829Z,6.07
2024-01-04T04:12:13.000Z,6.10
2024-01-04T04:14:42.183Z,6.11
2024-01-04T04:17:09.304Z,6.12
2024-01-04T04:19:36.550Z,6.13
2024-01-04T04:22:03.767Z,6.15
2024-01-04T04:24:31.689Z,6.18
2024-01-04T04:26:58.974Z,6.23
2024-01-04T04:29:26.107Z,6.24
2024-01-04T04:31:54.810Z,6.24
2024-01-04T04:34:22.092Z,6.26
2024-01-04T04:36:49.480Z,6.27
2024-01-04T04:39:16.698Z,6.25
2024-01-04T04:41:43.849Z,6.24
2024-01-04T04:44:10.938Z,6.26
2024-01-04T04:46:38.047Z,6.25
2024-01-04T04:49:05.295Z,6.25
2024-01-04T04:51:32.545Z,6.25
2024-01-04T04:53:59.990Z,6.24
2024-01-04T04:56:27.153Z,6.23
2024-01-04T04:58:54.238Z,6.22
2024-01-04T05:01:21.373Z,6.20
2024-01-04T05:03:49.614Z,6.20
2024-01-04T05:06:17.303Z,6.21
2024-01-04T05:08:45.302Z,6.22
2024-01-04T05:11:12.510Z,6.24
2024-01-04T05:13:39.622Z,6.27
2024-01-04T05:16:07.122Z,6.30
2024-01-04T05:18:34.440Z,6.34
2024-01-04T05:21:01.854Z,6.37
2024-01-04T05:23:29.043Z,6.38
2024-01-04T05:25:56.177Z,6.38
2024-01-04T05:28:23.994Z,6.41
2024-01-04T05:30:51.179Z,6.43
2024-01-04T05:33:18.757Z,6.44
2024-01-04T05:35:47.075Z,6.45
2024-01-04T05:38:14.222Z,6.44
2024-01-04T05:40:41.349Z,6.44
2024-01-04T05:43:08.427Z,6.46
2024-01-04T05:45:35.542Z,6.45
2024-01-04T05:48:02.704Z,6.43
2024-01-04T05:50:29.885Z,6.39
2024-01-04T05:52:59.346Z,6.34
2024-01-04T05:55:26.566Z,6.28
2024-01-04T05:57:53.812Z,6.27
2024-01-04T06:00:21.107Z,6.25
2024-01-04T06:02:48.734Z,6.24
2024-01-04T06:05:16.054Z,6.24
2024-01-04T06:07:43.305Z,6.25
2024-01-04T06:10:10.422Z,6.26
2024-01-04T06:12:37.501Z,6.28
2024-01-04T06:15:23.386Z,6.29
2024-01-04T06:18:10.969Z,6.30
2024-01-04T06:20:58.472Z,6.30
2024-01-04T06:23:45.977Z,6.29
2024-01-04T06:26:19.198Z,6.25
2024-01-04T06:28:46.609Z,6.23
2024-01-04T06:31:14.021Z,6.23
2024-01-04T06:33:41.399Z,6.20
2024-01-04T06:36:08.966Z,6.20
2024-01-04T06:38:36.619Z,6.20
2024-01-04T06:41:04.998Z,6.20
2024-01-04T06:43:32.242Z,6.21
2024-01-04T06:45:59.441Z,6.20
2024-01-04T06:48:28.513Z,6.21
2024-01-04T06:50:56.023Z,6.23
2024-01-04T06:53:23.159Z,6.23
2024-01-04T06:55:50.285Z,6.21
2024-01-04T06:58:17.513Z,6.22
2024-01-04T07:00:44.815Z,6.23
2024-01-04T07:03:12.172Z,6.24
2024-01-04T07:05:39.489Z,6.24
2024-01-04T07:08:06.932Z,6.26
2024-01-04T07:10:35.333Z,6.28
2024-01-04T07:13:02.562Z,6.28
2024-01-04T07:15:29.963Z,6.31
2024-01-04T07:17:57.314Z,6.32
2024-01-04T07:20:26.261Z,6.33
2024-01-04T07:22:54.430Z,6.35
2024-01-04T07:25:26.481Z,6.36
2024-01-04T07:27:53.559Z,6.38
2024-01-04T07:30:21.236Z,6.39
2024-01-04T07:32:48.479Z,6.39
2024-01-04T07:35:17.946Z,6.38
2024-01-04T07:37:45.876Z,6.37
2024-01-04T07:40:13.640Z,6.38
2024-01-04T07:42:42.921Z,6.38
2024-01-04T07:45:10.561Z,6.38
2024-01-04T07:47:38.784Z,6.39
2024-01-04T07:50:06.609Z,6.40
2024-01-04T07:52:33.992Z,6.39
2024-01-04T07:55:03.938Z,6.38
2024-01-04T07:57:33.263Z,6.36
2024-01-04T08:00:01.719Z,6.37
2024-01-04T08:02:33.014Z,6.35
2024-01-04T08:05:02.431Z,6.37
2024-01-04T08:07:29.892Z,6.38
2024-01-04T08:09:59.030Z,6.42
2024-01-04T08:12:26.197Z,6.42
2024-01-04T08:14:59.083Z,6.41
2024-01-04T08:17:26.382Z,6.43
2024-01-04T08:19:57.038Z,6.45
2024-01-04T08:22:24.326Z,6.48
2024-01-04T08:24:51.498Z,6.51
2024-01-04T08:27:21.566Z,6.54
2024-01-04T08:29:50.100Z,6.56
2024-01-04T08:32:18.400Z,6.59
2024-01-04T08:34:45.591Z,6.61
2024-01-04T08:37:14.816Z,6.62
2024-01-04T08:39:42.537Z,6.60
2024-01-04T08:42:09.749Z,6.58
2024-01-04T08:44:36.946Z,6.58
2024-01-04T08:47:04.155Z,6.54
2024-01-04T08:49:31.476Z,6.56
2024-01-04T08:51:58.705Z,6.57
2024-01-04T08:54:25.952Z,6.56
2024-01-04T08:56:53.120Z,6.58
2024-01-04T08:59:20.432Z,6.60
2024-01-04T09:01:47.622Z,6.62
2024-01-04T09:04:14.820Z,6.64
2024-01-04T09:06:41.977Z,6.68
2024-01-04T09:09:09.334Z,6.66
2024-01-04T09:11:41.351Z,6.63
2024-01-04T09:14:12.993Z,6.60
2024-01-04T09:16:41.439Z,6.54
2024-01-04T09:19:08.882Z,6.51
2024-01-04T09:21:36.085Z,6.47
2024-01-04T09:24:03.489Z,6.44
2024-01-04T09:26:30.792Z,6.42
2024-01-04T09:28:57.924Z,6.42
2024-01-04T09:31:28.659Z,6.41
2024-01-04T09:33:58.045Z,6.37
2024-01-04T09:36:25.203Z,6.33
2024-01-04T09:38:52.586Z,6.34
2024-01-04T09:41:23.897Z,6.33
2024-01-04T09:43:56.173Z,6.32
2024-01-04T09:46:26.058Z,6.31
2024-01-04T09:48:59.786Z,6.32
2024-01-04T09:51:28.900Z,6.34
2024-01-04T09:53:56.968Z,6.35
2024-01-04T09:56:24.771Z,6.35
2024-01-04T09:58:54.209Z,6.35
2024-01-04T10:01:24.871Z,6.36
2024-01-04T10:03:54.006Z,6.38
2024-01-04T10:06:24.112Z,6.38
2024-01-04T10:08:58.074Z,6.36
2024-01-04T10:11:30.921Z,6.35
2024-01-04T10:13:58.401Z,6.34
2024-01-04T10:16:25.573Z,6.33
2024-01-04T10:18:53.562Z,6.29
2024-01-04T10:21:20.833Z,6.32
2024-01-04T10:23:57.908Z,6.33
2024-01-04T10:26:25.144Z,6.34
2024-01-04T10:28:56.431Z,6.35
2024-01-04T10:31:24.032Z,6.37
2024-01-04T10:34:01.348Z,6.39
2024-01-04T10:36:34.012Z,6.41
2024-01-04T10:39:04.377Z,6.43
2024-01-04T10:41:32.012Z,6.45
2024-01-04T10:44:09.004Z,6.46
2024-01-04T10:46:37.206Z,6.47
2024-01-04T10:49:04.870Z,6.46
2024-01-04T10:51:32.948Z,6.49
2024-01-04T10:54:01.586Z,6.49
2024-01-04T10:56:36.659Z,6.50
2024-01-04T10:59:06.986Z,6.50
2024-01-04T11:01:34.308Z,6.51
2024-01-04T11:04:01.747Z,6.52
2024-01-04T11:06:29.541Z,6.56
2024-01-04T11:08:57.394Z,6.58
2024-01-04T11:11:28.145Z,6.58
2024-01-04T11:13:55.292Z,6.57
2024-01-04T11:16:28.440Z,6.56
2024-01-04T11:19:21.491Z,6.56
2024-01-04T11:22:05.572Z,6.55
2024-01-04T11:24:42.678Z,6.59
2024-01-04T11:27:13.594Z,6.57
2024-01-04T11:29:42.327Z,6.56
2024-01-04T11:32:10.340Z,6.57
2024-01-04T11:34:40.253Z,6.59
2024-01-04T11:37:23.100Z,6.59
2024-01-04T11:40:06.542Z,6.59
2024-01-04T11:42:35.073Z,6.59
2024-01-04T11:45:05.822Z,6.60
2024-01-04T11:47:40.332Z,6.59
2024-01-04T11:50:27.398Z,6.60
2024-01-04T11:53:07.683Z,6.61
2024-01-04T11:55:37.267Z,6.61
2024-01-04T11:58:04.604Z,6.60
2024-01-04T12:00:36.155Z,6.59
2024-01-04T12:03:15.408Z,6.57
2024-01-04T12:05:51.950Z,6.56
2024-01-04T12:08:32.945Z,6.53
2024-01-04T12:11:06.418Z,6.52
2024-01-04T12:13:33.590Z,6.50
2024-01-04T12:16:00.730Z,6.47
2024-01-04T12:18:30.364Z,6.42
2024-01-04T12:21:07.482Z,6.36
2024-01-04T12:23:42.184Z,6.34
2024-01-04T12:26:09.491Z,6.34
2024-01-04T12:28:36.738Z,6.31
2024-01-04T12:31:04.442Z,6.31
2024-01-04T12:33:32.595Z,6.28
2024-01-04T12:36:03.399Z,6.26
2024-01-04T12:38:30.621Z,6.26
2024-01-04T12:40:57.789Z,6.28
2024-01-04T12:43:26.921Z,6.33
2024-01-04T12:46:04.032Z,6.38
2024-01-04T12:48:31.749Z,6.39
2024-01-04T12:51:18.201Z,6.40
2024-01-04T12:53:48.704Z,6.39
2024-01-04T12:56:16.972Z,6.39
2024-01-04T12:58:45.929Z,6.40
2024-01-04T13:01:13.172Z,6.37
2024-01-04T13:03:40.399Z,6.38
2024-01-04T13:06:07.636Z,6.37
2024-01-04T13:08:34.768Z,6.38
2024-01-04T13:11:03.772Z,6.37
2024-01-04T13:13:33.222Z,6.36
2024-01-04T13:16:01.526Z,6.37
2024-01-04T13:18:29.121Z,6.36
2024-01-04T13:20:59.836Z,6.39
2024-01-04T13:23:27.566Z,6.38
2024-01-04T13:25:54.695Z,6.33
2024-01-04T13:28:21.890Z,6.31
2024-01-04T13:30:49.075Z,6.31
2024-01-04T13:33:16.402Z,6.28
2024-01-04T13:35:43.857Z,6.24
2024-01-04T13:38:10.961Z,6.22
2024-01-04T13:40:38.073Z,6.17
2024-01-04T13:43:05.223Z,6.14
2024-01-04T13:45:32.419Z,6.13
2024-01-04T13:47:59.852Z,6.14
2024-01-04T13:50:27.221Z,6.12
2024-01-04T13:52:54.464Z,6.11
2024-01-04T13:55:21.640Z,6.07
2024-01-04T13:57:48.925Z,6.07
2024-01-04T14:00:16.439Z,6.05
2024-01-04T14:02:44.150Z,6.05
2024-01-04T14:05:11.450Z,6.06
2024-01-04T14:07:38.593Z,6.08
2024-01-04T14:10:08.841Z,6.09
2024-01-04T14:12:36.008Z,6.10
2024-01-04T14:15:06.003Z,6.10
2024-01-04T14:17:33.195Z,6.09
2024-01-04T14:20:02.110Z,6.09
2024-01-04T14:22:30.199Z,6.09
2024-01-04T14:24:57.840Z,6.09
2024-01-04T14:27:25.234Z,6.12
2024-01-04T14:29:54.303Z,6.13
2024-01-04T14:32:21.587Z,6.13
2024-01-04T14:34:48.882Z,6.16
2024-01-04T14:37:16.058Z,6.18
2024-01-04T14:39:43.133Z,6.20
2024-01-04T14:42:10.414Z,6.20
2024-01-04T14:44:40.596Z,6.22
2024-01-04T14:47:07.946Z,6.25
2024-01-04T14:49:43.320Z,6.24
2024-01-04T14:52:12.588Z,6.24
2024-01-04T14:54:43.795Z,6.18
2024-01-04T14:57:11.214Z,6.19
2024-01-04T14:59:38.765Z,6.16
2024-01-04T15:02:07.155Z,6.14
2024-01-04T15:04:34.330Z,6.10
2024-01-04T15:07:04.399Z,6.09
2024-01-04T15:09:32.824Z,6.10
2024-01-04T15:11:59.934Z,6.06
2024-01-04T15:14:27.299Z,6.05
2024-01-04T15:16:57.311Z,6.04
2024-01-04T15:19:24.604Z,6.04
2024-01-04T15:21:52.875Z,6.02
2024-01-04T15:24:20.262Z,6.03
2024-01-04T15:26:47.506Z,6.03
2024-01-04T15:29:14.688Z,6.01
2024-01-04T15:31:42.015Z,6.02
2024-01-04T15:34:10.552Z,6.01
2024-01-04T15:36:38.258Z,5.98
2024-01-04T15:39:06.093Z,5.94
2024-01-04T15:41:33.211Z,5.93
2024-01-04T15:44:01.342Z,5.92
2024-01-04T15:46:28.688Z,5.93
2024-01-04T15:48:55.853Z,5.92
2024-01-04T15:51:23.309Z,5.92
2024-01-04T15:53:50.919Z,5.93
2024-01-04T15:56:18.936Z,5.95
2024-01-04T15:58:46.114Z,5.96
2024-01-04T16:01:13.582Z,5.94
2024-01-04T16:03:41.288Z,5.92
2024-01-04T16:06:09.045Z,5.91
2024-01-04T16:08:36.313Z,5.90
2024-01-04T16:11:03.874Z,5.88
2024-01-04T16:13:32.438Z,5.87
2024-01-04T16:15:59.537Z,5.87
2024-01-04T16:18:28.528Z,5.86
2024-01-04T16:20:55.732Z,5.86
2024-01-04T16:23:22.837Z,5.83
2024-01-04T16:25:50.373Z,5.77
2024-01-04T16:28:22.015Z,5.69
2024-01-04T16:30:50.256Z,5.58
2024-01-04T16:33:17.814Z,5.49
2024-01-04T16:35:45.567Z,5.41
2024-01-04T16:38:12.870Z,5.27
2024-01-04T16:40:40.220Z,5.14
2024-01-04T16:43:08.213Z,5.04
2024-01-04T16:45:36.469Z,5.00
2024-01-04T16:48:04.301Z,4.93
2024-01-04T16:50:31.605Z,4.89
2024-01-04T16:52:58.917Z,4.86
2024-01-04T16:55:26.008Z,4.79
2024-01-04T16:57:53.198Z,4.76
2024-01-04T17:00:20.535Z,4.70
2024-01-04T17:02:47.710Z,4.64
2024-01-04T17:05:15.370Z,4.58
2024-01-04T17:07:42.476Z,4.56
2024-01-04T17:10:09.987Z,4.54
2024-01-04T17:12:37.139Z,4.54
2024-01-04T17:15:07.356Z,4.50
2024-01-04T17:17:34.812Z,4.49
2024-01-04T17:20:02.614Z,4.45
2024-01-04T17:22:31.237Z,4.47
2024-01-04T17:24:58.395Z,4.47
2024-01-04T17:27:27.399Z,4.42
2024-01-04T17:29:58.569Z,4.36
2024-01-04T17:32:25.966Z,4.29
2024-01-04T17:34:53.555Z,4.26
2024-01-04T17:37:20.921Z,4.27
2024-01-04T17:39:48.125Z,4.24
2024-01-04T17:42:18.394Z,4.23
2024-01-04T17:44:45.753Z,4.22
2024-01-04T17:47:13.338Z,4.18
2024-01-04T17:49:41.548Z,4.13
2024-01-04T17:52:09.759Z,4.13
2024-01-04T17:54:38.741Z,4.12
2024-01-04T17:57:06.568Z,4.09
2024-01-04T17:59:34.806Z,4.09
2024-01-04T18:02:03.367Z,4.04
2024-01-04T18:04:30.536Z,4.01
2024-01-04T18:06:57.717Z,4.00
2024-01-04T18:09:24.904Z,3.95
2024-01-04T18:11:52.116Z,3.87
2024-01-04T18:14:19.362Z,3.84
2024-01-04T18:16:46.698Z,3.81
2024-01-04T18:19:14.292Z,3.78
2024-01-04T18:21:42.266Z,3.75
2024-01-04T18:24:09.845Z,3.72
2024-01-04T18:26:36.999Z,3.67
2024-01-04T18:29:04.525Z,3.63
2024-01-04T18:31:31.696Z,3.57
2024-01-04T18:33:58.939Z,3.53
2024-01-04T18:36:26.282Z,3.50
2024-01-04T18:39:01.025Z,3.41
2024-01-04T18:41:31.392Z,3.37
2024-01-04T18:43:58.789Z,3.32
2024-01-04T18:46:25.915Z,3.27
2024-01-04T18:48:53.956Z,3.23
2024-01-04T18:51:22.791Z,3.13
2024-01-04T18:53:50.126Z,3.05
2024-01-04T18:56:17.452Z,3.00
2024-01-04T18:58:44.554Z,2.97
2024-01-04T19:01:11.690Z,2.93
2024-01-04T19:03:39.145Z,2.94
2024-01-04T19:06:07.646Z,2.94
2024-01-04T19:08:34.822Z,2.95
2024-01-04T19:11:02.282Z,2.96
2024-01-04T19:13:29.421Z,2.97
2024-01-04T19:16:00.367Z,2.99
2024-01-04T19:18:28.464Z,3.00
2024-01-04T19:20:56.486Z,3.02
2024-01-04T19:23:23.622Z,3.03
2024-01-04T19:25:50.730Z,3.04
2024-01-04T19:28:17.871Z,3.07
2024-01-04T19:30:45.244Z,3.09
2024-01-04T19:33:12.601Z,3.11
2024-01-04T19:35:39.742Z,3.14
2024-01-04T19:38:09.091Z,3.11
2024-01-04T19:40:36.294Z,3.11
2024-01-04T19:43:03.649Z,3.12
2024-01-04T19:45:30.855Z,3.15
2024-01-04T19:47:58.247Z,3.14
2024-01-04T19:50:28.537Z,3.13
2024-01-04T19:52:57.404Z,3.13
2024-01-04T19:55:24.600Z,3.15
2024-01-04T19:57:51.713Z,3.12
2024-01-04T20:00:19.227Z,3.14
2024-01-04T20:02:46.865Z,3.12
2024-01-04T20:05:14.067Z,3.12
2024-01-04T20:07:41.217Z,3.12
2024-01-04T20:10:08.709Z,3.11
2024-01-04T20:12:36.047Z,3.12
2024-01-04T20:15:03.362Z,3.11
2024-01-04T20:17:31.447Z,3.10
2024-01-04T20:19:58.861Z,3.10
2024-01-04T20:22:26.102Z,3.11
2024-01-04T20:24:53.908Z,3.08
2024-01-04T20:27:21.223Z,3.07
2024-01-04T20:29:48.520Z,3.04
2024-01-04T20:32:17.276Z,3.06
2024-01-04T20:34:45.721Z,3.08
2024-01-04T20:37:14.928Z,3.05
2024-01-04T20:39:42.109Z,3.04
2024-01-04T20:42:09.326Z,3.05
2024-01-04T20:44:36.493Z,3.02
2024-01-04T20:47:03.723Z,2.96
2024-01-04T20:49:31.008Z,2.88
2024-01-04T20:51:58.420Z,2.79
2024-01-04T20:54:25.685Z,2.78
2024-01-04T20:56:52.876Z,2.72
2024-01-04T20:59:20.300Z,2.73
2024-01-04T21:01:47.843Z,2.66
2024-01-04T21:04:15.491Z,2.59
2024-01-04T21:06:46.291Z,2.61
2024-01-04T21:09:16.020Z,2.63
2024-01-04T21:11:43.336Z,2.67
2024-01-04T21:14:10.630Z,2.70
2024-01-04T21:16:37.706Z,2.67
2024-01-04T21:19:05.330Z,2.64
2024-01-04T21:21:32.646Z,2.61
2024-01-04T21:24:00.634Z,2.62
2024-01-04T21:26:28.242Z,2.65
2024-01-04T21:28:55.542Z,2.65
2024-01-04T21:31:23.066Z,2.66
2024-01-04T21:33:50.324Z,2.66
2024-01-04T21:36:17.786Z,2.65
2024-01-04T21:38:45.387Z,2.64
2024-01-04T21:41:12.684Z,2.66
2024-01-04T21:43:39.806Z,2.68
2024-01-04T21:46:07.392Z,2.69
2024-01-04T21:48:35.038Z,2.65
2024-01-04T21:51:02.431Z,2.67
2024-01-04T21:53:29.629Z,2.67
2024-01-04T21:55:57.205Z,2.65
2024-01-04T21:58:24.435Z,2.65
2024-01-04T22:00:51.745Z,2.67
2024-01-04T22:03:19.227Z,2.71
2024-01-04T22:05:46.567Z,2.72
2024-01-04T22:08:13.833Z,2.74
2024-01-04T22:10:40.994Z,2.76
2024-01-04T22:13:08.672Z,2.81
2024-01-04T22:15:35.905Z,2.86
2024-01-04T22:18:05.866Z,2.90
2024-01-04T22:20:33.072Z,2.91
2024-01-04T22:23:00.236Z,2.94
2024-01-04T22:25:27.429Z,2.96
2024-01-04T22:27:54.550Z,2.98
2024-01-04T22:30:21.700Z,3.02
2024-01-04T22:32:49.853Z,3.04
2024-01-04T22:35:19.120Z,3.07
2024-01-04T22:37:46.320Z,3.07
2024-01-04T22:40:13.615Z,3.10
2024-01-04T22:42:40.821Z,3.11
2024-01-04T22:45:08.322Z,3.11
2024-01-04T22:47:35.846Z,3.09
2024-01-04T22:50:03.093Z,3.08
2024-01-04T22:52:30.196Z,3.03
2024-01-04T22:54:57.709Z,2.96
2024-01-04T22:57:25.802Z,2.92
2024-01-04T22:59:54.703Z,2.88
2024-01-04T23:02:23.190Z,2.89
2024-01-04T23:04:50.327Z,2.92
2024-01-04T23:07:17.640Z,2.96
2024-01-04T23:09:45.058Z,3.00
2024-01-04T23:12:12.306Z,3.04
2024-01-04T23:14:39.728Z,3.05
2024-01-04T23:17:06.802Z,3.08
2024-01-04T23:19:34.046Z,3.10
2024-01-04T23:22:01.277Z,3.14
2024-01-04T23:24:28.444Z,3.18
2024-01-04T23:26:55.727Z,3.21
2024-01-04T23:29:22.865Z,3.24
2024-01-04T23:31:50.090Z,3.29
2024-01-04T23:34:17.710Z,3.33
2024-01-04T23:36:45.632Z,3.37
2024-01-04T23:39:13.090Z,3.41
2024-01-04T23:41:41.748Z,3.43
2024-01-04T23:44:08.919Z,3.47
2024-01-04T23:46:36.179Z,3.53
2024-01-04T23:49:05.605Z,3.59
2024-01-04T23:51:35.143Z,3.65
2024-01-04T23:54:02.358Z,3.73
2024-01-04T23:56:29.462Z,3.79
2024-01-04T23:58:56.559Z,3.86
